sensor_id;sensor_type;location;lat;lon;timestamp;pressure;altitude;pressure_sealevel;temperature;humidity
13765;BME280;6953;48.810;9.204;2023-05-01T00:00:23;98706.03;;;11.80;98.67
13765;BME280;6953;48.810;9.204;2023-05-01T00:02:50;98704.25;;;11.80;98.76
13765;BME280;6953;48.810;9.204;2023-05-01T00:05:17;98705.25;;;11.78;99.11
13765;BME280;6953;48.810;9.204;2023-05-01T00:07:43;98703.50;;;11.78;98.95
13765;BME280;6953;48.810;9.204;2023-05-01T00:10:10;98696.72;;;11.74;99.05
13765;BME280;6953;48.810;9.204;2023-05-01T00:12:36;98431.56;;;10.08;98.38
13765;BME280;6953;48.810;9.204;2023-05-01T00:15:04;98694.09;;;11.74;99.45
13765;BME280;6953;48.810;9.204;2023-05-01T00:17:31;98678.06;;;11.63;99.54
13765;BME280;6953;48.810;9.204;2023-05-01T00:19:59;98691.63;;;11.71;99.86
13765;BME280;6953;48.810;9.204;2023-05-01T00:22:25;98672.09;;;11.61;100.00
13765;BME280;6953;48.810;9.204;2023-05-01T00:24:51;98685.59;;;11.69;99.88
13765;BME280;6953;48.810;9.204;2023-05-01T00:27:18;98636.28;;;11.43;100.00
13765;BME280;6953;48.810;9.204;2023-05-01T00:29:47;98666.13;;;11.58;100.00
13765;BME280;6953;48.810;9.204;2023-05-01T00:32:13;98668.47;;;11.62;99.91
13765;BME280;6953;48.810;9.204;2023-05-01T00:34:40;98647.56;;;11.45;99.93
13765;BME280;6953;48.810;9.204;2023-05-01T00:37:08;98654.25;;;11.51;99.57
13765;BME280;6953;48.810;9.204;2023-05-01T00:39:34;98669.94;;;11.52;99.55
13765;BME280;6953;48.810;9.204;2023-05-01T00:42:00;98662.22;;;11.49;99.76
13765;BME280;6953;48.810;9.204;2023-05-01T00:44:26;98672.88;;;11.46;100.00
13765;BME280;6953;48.810;9.204;2023-05-01T00:46:53;98668.00;;;11.40;100.00
13765;BME280;6953;48.810;9.204;2023-05-01T00:49:19;98662.06;;;11.37;100.00
13765;BME280;6953;48.810;9.204;2023-05-01T00:51:48;98646.91;;;11.27;100.00
13765;BME280;6953;48.810;9.204;2023-05-01T00:54:18;98656.03;;;11.35;100.00
13765;BME280;6953;48.810;9.204;2023-05-01T00:56:46;98636.34;;;11.28;100.00
13765;BME280;6953;48.810;9.204;2023-05-01T00:59:13;98653.25;;;11.38;100.00
13765;BME280;6953;48.810;9.204;2023-05-01T01:01:46;98648.75;;;11.40;100.00
13765;BME280;6953;48.810;9.204;2023-05-01T01:04:13;98646.78;;;11.43;100.00
13765;BME280;6953;48.810;9.204;2023-05-01T01:18:06;98631.63;;;11.48;100.00
13765;BME280;6953;48.810;9.204;2023-05-01T01:20:40;98654.44;;;11.48;100.00
13765;BME280;6953;48.810;9.204;2023-05-01T01:29:47;98626.38;;;11.48;100.00
13765;BME280;6953;48.810;9.204;2023-05-01T01:35:25;98621.13;;;11.48;100.00
13765;BME280;6953;48.810;9.204;2023-05-01T01:38:08;98622.75;;;11.51;100.00
13765;BME280;6953;48.810;9.204;2023-05-01T01:40:49;98544.88;;;11.05;100.00
13765;BME280;6953;48.810;9.204;2023-05-01T01:43:32;98625.13;;;11.55;100.00
13765;BME280;6953;48.810;9.204;2023-05-01T01:46:12;98615.53;;;11.54;100.00
13765;BME280;6953;48.810;9.204;2023-05-01T01:48:50;98622.56;;;11.54;100.00
13765;BME280;6953;48.810;9.204;2023-05-01T01:51:25;98612.47;;;11.46;100.00
13765;BME280;6953;48.810;9.204;2023-05-01T01:53:58;98614.69;;;11.54;100.00
13765;BME280;6953;48.810;9.204;2023-05-01T01:56:32;98624.38;;;11.53;100.00
13765;BME280;6953;48.810;9.204;2023-05-01T01:59:10;98630.28;;;11.57;100.00
13765;BME280;6953;48.810;9.204;2023-05-01T02:01:40;98617.06;;;11.58;100.00
13765;BME280;6953;48.810;9.204;2023-05-01T02:04:12;98594.56;;;11.53;100.00
13765;BME280;6953;48.810;9.204;2023-05-01T02:06:57;98607.22;;;11.62;100.00
13765;BME280;6953;48.810;9.204;2023-05-01T02:09:27;98601.97;;;11.62;100.00
13765;BME280;6953;48.810;9.204;2023-05-01T02:11:59;98601.84;;;11.63;100.00
13765;BME280;6953;48.810;9.204;2023-05-01T02:14:29;98595.94;;;11.60;100.00
13765;BME280;6953;48.810;9.204;2023-05-01T02:17:09;98596.44;;;11.66;100.00
13765;BME280;6953;48.810;9.204;2023-05-01T02:19:46;98593.72;;;11.68;100.00
13765;BME280;6953;48.810;9.204;2023-05-01T02:22:17;98591.09;;;11.68;100.00
13765;BME280;6953;48.810;9.204;2023-05-01T02:24:53;98577.56;;;11.60;100.00
13765;BME280;6953;48.810;9.204;2023-05-01T02:27:31;98592.69;;;11.70;100.00
13765;BME280;6953;48.810;9.204;2023-05-01T02:30:04;98586.03;;;11.65;100.00
13765;BME280;6953;48.810;9.204;2023-05-01T02:32:37;98588.31;;;11.71;100.00
13765;BME280;6953;48.810;9.204;2023-05-01T02:35:10;98572.03;;;11.64;100.00
13765;BME280;6953;48.810;9.204;2023-05-01T02:37:41;98558.41;;;11.58;100.00
13765;BME280;6953;48.810;9.204;2023-05-01T02:40:12;98575.06;;;11.72;100.00
13765;BME280;6953;48.810;9.204;2023-05-01T02:42:45;98568.47;;;11.65;100.00
13765;BME280;6953;48.810;9.204;2023-05-01T02:45:18;98283.28;;;10.04;100.00
13765;BME280;6953;48.810;9.204;2023-05-01T02:47:53;98588.78;;;11.77;100.00
13765;BME280;6953;48.810;9.204;2023-05-01T02:50:25;98569.50;;;11.77;100.00
13765;BME280;6953;48.810;9.204;2023-05-01T02:52:54;98557.69;;;11.70;100.00
13765;BME280;6953;48.810;9.204;2023-05-01T02:55:25;98554.13;;;11.71;100.00
13765;BME280;6953;48.810;9.204;2023-05-01T02:57:58;98571.03;;;11.81;100.00
13765;BME280;6953;48.810;9.204;2023-05-01T03:00:38;98574.31;;;11.84;100.00
13765;BME280;6953;48.810;9.204;2023-05-01T03:03:10;98567.19;;;11.86;100.00
13765;BME280;6953;48.810;9.204;2023-05-01T03:05:44;98564.47;;;11.88;100.00
13765;BME280;6953;48.810;9.204;2023-05-01T03:08:18;98550.75;;;11.83;100.00
13765;BME280;6953;48.810;9.204;2023-05-01T03:10:52;98557.72;;;11.84;100.00
13765;BME280;6953;48.810;9.204;2023-05-01T03:13:25;98571.97;;;11.94;100.00
13765;BME280;6953;48.810;9.204;2023-05-01T03:15:56;98571.91;;;11.95;100.00
13765;BME280;6953;48.810;9.204;2023-05-01T03:18:26;98269.09;;;10.22;100.00
13765;BME280;6953;48.810;9.204;2023-05-01T03:20:57;98568.91;;;12.01;100.00
13765;BME280;6953;48.810;9.204;2023-05-01T03:23:27;98562.72;;;12.02;100.00
13765;BME280;6953;48.810;9.204;2023-05-01T03:26:06;98549.94;;;11.96;100.00
13765;BME280;6953;48.810;9.204;2023-05-01T03:28:41;98600.25;;;12.04;100.00
13765;BME280;6953;48.810;9.204;2023-05-01T03:31:08;98559.97;;;12.04;100.00
13765;BME280;6953;48.810;9.204;2023-05-01T03:33:37;98561.97;;;12.00;100.00
13765;BME280;6953;48.810;9.204;2023-05-01T03:36:06;98559.41;;;11.99;100.00
13765;BME280;6953;48.810;9.204;2023-05-01T03:38:43;98544.97;;;11.92;100.00
13765;BME280;6953;48.810;9.204;2023-05-01T03:41:14;98545.16;;;11.89;100.00
13765;BME280;6953;48.810;9.204;2023-05-01T03:43:42;98553.50;;;11.95;100.00
13765;BME280;6953;48.810;9.204;2023-05-01T03:46:10;98544.28;;;11.88;100.00
13765;BME280;6953;48.810;9.204;2023-05-01T03:48:39;98549.06;;;11.96;100.00
13765;BME280;6953;48.810;9.204;2023-05-01T03:51:10;98533.59;;;11.91;100.00
13765;BME280;6953;48.810;9.204;2023-05-01T03:53:40;98530.84;;;11.93;100.00
13765;BME280;6953;48.810;9.204;2023-05-01T03:56:09;98536.50;;;12.01;100.00
13765;BME280;6953;48.810;9.204;2023-05-01T03:58:38;98534.72;;;12.01;100.00
13765;BME280;6953;48.810;9.204;2023-05-01T04:01:08;98517.44;;;11.97;100.00
13765;BME280;6953;48.810;9.204;2023-05-01T04:03:38;98536.91;;;12.09;100.00
13765;BME280;6953;48.810;9.204;2023-05-01T04:06:11;98542.91;;;12.11;100.00
13765;BME280;6953;48.810;9.204;2023-05-01T04:08:40;98538.41;;;12.13;100.00
13765;BME280;6953;48.810;9.204;2023-05-01T04:11:08;98529.06;;;12.07;100.00
13765;BME280;6953;48.810;9.204;2023-05-01T04:13:39;98532.16;;;12.14;99.97
13765;BME280;6953;48.810;9.204;2023-05-01T04:16:06;98556.34;;;12.20;100.00
13765;BME280;6953;48.810;9.204;2023-05-01T04:18:37;98538.47;;;12.25;99.66
13765;BME280;6953;48.810;9.204;2023-05-01T04:21:06;98534.81;;;12.28;99.61
13765;BME280;6953;48.810;9.204;2023-05-01T04:23:44;98539.78;;;12.32;99.05
13765;BME280;6953;48.810;9.204;2023-05-01T04:26:15;98532.66;;;12.34;98.61
13765;BME280;6953;48.810;9.204;2023-05-01T04:28:49;98541.09;;;12.39;98.18
13765;BME280;6953;48.810;9.204;2023-05-01T04:31:22;98539.13;;;12.43;97.54
13765;BME280;6953;48.810;9.204;2023-05-01T04:33:50;98535.34;;;12.46;97.47
13765;BME280;6953;48.810;9.204;2023-05-01T04:36:18;98535.94;;;12.51;97.14
13765;BME280;6953;48.810;9.204;2023-05-01T04:38:46;98544.34;;;12.56;96.14
13765;BME280;6953;48.810;9.204;2023-05-01T04:41:13;98527.16;;;12.51;96.12
13765;BME280;6953;48.810;9.204;2023-05-01T04:43:40;98541.97;;;12.66;95.61
13765;BME280;6953;48.810;9.204;2023-05-01T04:46:08;98445.31;;;12.15;95.52
13765;BME280;6953;48.810;9.204;2023-05-01T04:48:38;98530.44;;;12.68;94.66
13765;BME280;6953;48.810;9.204;2023-05-01T04:51:06;98538.41;;;12.81;94.35
13765;BME280;6953;48.810;9.204;2023-05-01T04:53:35;98528.50;;;12.84;93.87
13765;BME280;6953;48.810;9.204;2023-05-01T04:56:05;98522.59;;;12.81;92.57
13765;BME280;6953;48.810;9.204;2023-05-01T04:58:36;98520.78;;;12.81;91.91
13765;BME280;6953;48.810;9.204;2023-05-01T05:01:06;98539.97;;;12.97;91.65
13765;BME280;6953;48.810;9.204;2023-05-01T05:03:34;98527.84;;;12.95;91.22
13765;BME280;6953;48.810;9.204;2023-05-01T05:06:03;98524.81;;;13.01;90.98
13765;BME280;6953;48.810;9.204;2023-05-01T05:08:31;98508.34;;;12.97;90.09
13765;BME280;6953;48.810;9.204;2023-05-01T05:10:58;98537.63;;;13.19;89.65
13765;BME280;6953;48.810;9.204;2023-05-01T05:13:26;98537.09;;;13.27;89.69
13765;BME280;6953;48.810;9.204;2023-05-01T05:15:53;98542.72;;;13.35;89.28
13765;BME280;6953;48.810;9.204;2023-05-01T05:18:22;98534.81;;;13.35;88.90
13765;BME280;6953;48.810;9.204;2023-05-01T05:20:49;98542.75;;;13.47;88.50
13765;BME280;6953;48.810;9.204;2023-05-01T05:23:16;98537.94;;;13.53;88.14
13765;BME280;6953;48.810;9.204;2023-05-01T05:25:44;98511.53;;;13.41;87.80
13765;BME280;6953;48.810;9.204;2023-05-01T05:28:10;98538.16;;;13.63;87.68
13765;BME280;6953;48.810;9.204;2023-05-01T05:30:38;98532.56;;;13.67;87.67
13765;BME280;6953;48.810;9.204;2023-05-01T05:33:07;98528.69;;;13.73;86.98
13765;BME280;6953;48.810;9.204;2023-05-01T05:35:34;98502.72;;;13.54;86.41
13765;BME280;6953;48.810;9.204;2023-05-01T05:38:00;98514.34;;;13.64;86.65
13765;BME280;6953;48.810;9.204;2023-05-01T05:40:27;98537.03;;;13.79;86.63
13765;BME280;6953;48.810;9.204;2023-05-01T05:42:56;98533.84;;;13.74;87.03
13765;BME280;6953;48.810;9.204;2023-05-01T05:45:22;98523.59;;;13.57;87.49
13765;BME280;6953;48.810;9.204;2023-05-01T05:47:49;98535.84;;;13.58;87.78
13765;BME280;6953;48.810;9.204;2023-05-01T05:50:17;98470.38;;;13.14;88.19
13765;BME280;6953;48.810;9.204;2023-05-01T05:52:44;98540.97;;;13.48;88.52
13765;BME280;6953;48.810;9.204;2023-05-01T05:55:12;98548.25;;;13.44;88.85
13765;BME280;6953;48.810;9.204;2023-05-01T05:57:41;98524.59;;;13.30;89.51
13765;BME280;6953;48.810;9.204;2023-05-01T06:00:08;98547.28;;;13.45;89.27
13765;BME280;6953;48.810;9.204;2023-05-01T06:02:38;98549.19;;;13.43;89.29
13765;BME280;6953;48.810;9.204;2023-05-01T06:05:05;98542.72;;;13.35;89.24
13765;BME280;6953;48.810;9.204;2023-05-01T06:07:41;98551.47;;;13.35;89.71
13765;BME280;6953;48.810;9.204;2023-05-01T06:10:09;98534.03;;;13.20;90.30
13765;BME280;6953;48.810;9.204;2023-05-01T06:12:40;98539.31;;;13.20;91.13
13765;BME280;6953;48.810;9.204;2023-05-01T06:15:07;98545.53;;;13.19;92.00
13765;BME280;6953;48.810;9.204;2023-05-01T06:17:33;98545.31;;;13.22;92.24
13765;BME280;6953;48.810;9.204;2023-05-01T06:20:00;98542.28;;;13.28;92.73
13765;BME280;6953;48.810;9.204;2023-05-01T06:22:26;98525.53;;;13.29;92.71
13765;BME280;6953;48.810;9.204;2023-05-01T06:24:52;98546.91;;;13.51;92.31
13765;BME280;6953;48.810;9.204;2023-05-01T06:27:18;98534.47;;;13.65;92.04
13765;BME280;6953;48.810;9.204;2023-05-01T06:29:44;98542.63;;;13.75;91.44
13765;BME280;6953;48.810;9.204;2023-05-01T06:32:10;98542.09;;;13.82;91.23
13765;BME280;6953;48.810;9.204;2023-05-01T06:34:36;98524.34;;;13.72;91.24
13765;BME280;6953;48.810;9.204;2023-05-01T06:37:05;98557.28;;;13.91;91.01
13765;BME280;6953;48.810;9.204;2023-05-01T06:39:33;98546.19;;;13.99;90.13
13765;BME280;6953;48.810;9.204;2023-05-01T06:42:00;98547.84;;;14.14;89.57
13765;BME280;6953;48.810;9.204;2023-05-01T06:44:28;98556.44;;;14.28;89.25
13765;BME280;6953;48.810;9.204;2023-05-01T06:46:54;98560.56;;;14.32;88.11
13765;BME280;6953;48.810;9.204;2023-05-01T06:49:21;98561.94;;;14.38;87.54
13765;BME280;6953;48.810;9.204;2023-05-01T06:51:47;98541.28;;;14.32;87.19
13765;BME280;6953;48.810;9.204;2023-05-01T06:54:14;98545.47;;;14.34;86.94
13765;BME280;6953;48.810;9.204;2023-05-01T06:56:41;98562.91;;;14.37;87.65
13765;BME280;6953;48.810;9.204;2023-05-01T06:59:08;98566.38;;;14.25;88.09
13765;BME280;6953;48.810;9.204;2023-05-01T07:01:34;98564.28;;;14.17;88.55
13765;BME280;6953;48.810;9.204;2023-05-01T07:04:00;98550.97;;;14.06;89.20
13765;BME280;6953;48.810;9.204;2023-05-01T07:06:26;98532.06;;;14.00;88.97
13765;BME280;6953;48.810;9.204;2023-05-01T07:08:52;98572.50;;;14.38;88.50
13765;BME280;6953;48.810;9.204;2023-05-01T07:11:19;98571.63;;;14.62;87.86
13765;BME280;6953;48.810;9.204;2023-05-01T07:13:45;98576.22;;;14.83;87.22
13765;BME280;6953;48.810;9.204;2023-05-01T07:16:12;98575.03;;;15.00;86.79
13765;BME280;6953;48.810;9.204;2023-05-01T07:18:38;98583.34;;;15.06;86.49
13765;BME280;6953;48.810;9.204;2023-05-01T07:21:06;98580.69;;;15.06;87.43
13765;BME280;6953;48.810;9.204;2023-05-01T07:23:34;98575.63;;;15.03;87.41
13765;BME280;6953;48.810;9.204;2023-05-01T07:26:00;98576.28;;;15.07;87.56
13765;BME280;6953;48.810;9.204;2023-05-01T07:28:28;98579.09;;;15.16;87.21
13765;BME280;6953;48.810;9.204;2023-05-01T07:30:54;98532.41;;;15.04;87.14
13765;BME280;6953;48.810;9.204;2023-05-01T07:33:22;98573.69;;;15.41;86.80
13765;BME280;6953;48.810;9.204;2023-05-01T07:35:52;98565.28;;;15.70;85.72
13765;BME280;6953;48.810;9.204;2023-05-01T07:38:18;98551.44;;;15.67;83.99
13765;BME280;6953;48.810;9.204;2023-05-01T07:40:44;98571.03;;;15.99;82.71
13765;BME280;6953;48.810;9.204;2023-05-01T07:43:10;98566.53;;;16.45;80.55
13765;BME280;6953;48.810;9.204;2023-05-01T07:45:40;98559.56;;;16.76;78.04
13765;BME280;6953;48.810;9.204;2023-05-01T07:48:09;98561.59;;;17.26;75.76
13765;BME280;6953;48.810;9.204;2023-05-01T07:50:37;98562.41;;;17.80;73.30
13765;BME280;6953;48.810;9.204;2023-05-01T07:53:04;98552.69;;;18.31;71.37
13765;BME280;6953;48.810;9.204;2023-05-01T07:55:30;98522.72;;;18.49;69.30
13765;BME280;6953;48.810;9.204;2023-05-01T07:57:56;98558.91;;;18.71;68.81
13765;BME280;6953;48.810;9.204;2023-05-01T08:00:22;98540.72;;;18.76;68.39
13765;BME280;6953;48.810;9.204;2023-05-01T08:02:50;98544.41;;;18.84;66.94
13765;BME280;6953;48.810;9.204;2023-05-01T08:05:16;98550.31;;;18.58;67.15
13765;BME280;6953;48.810;9.204;2023-05-01T08:07:41;98550.19;;;18.29;67.53
13765;BME280;6953;48.810;9.204;2023-05-01T08:10:07;98503.94;;;17.91;68.05
13765;BME280;6953;48.810;9.204;2023-05-01T08:12:33;98550.19;;;18.29;67.77
13765;BME280;6953;48.810;9.204;2023-05-01T08:14:59;98516.19;;;18.03;67.77
13765;BME280;6953;48.810;9.204;2023-05-01T08:17:26;98553.47;;;18.01;67.97
13765;BME280;6953;48.810;9.204;2023-05-01T08:19:52;98533.72;;;17.94;68.20
13765;BME280;6953;48.810;9.204;2023-05-01T08:22:22;98540.03;;;17.93;68.13
13765;BME280;6953;48.810;9.204;2023-05-01T08:24:50;98545.59;;;17.90;68.09
13765;BME280;6953;48.810;9.204;2023-05-01T08:27:16;98549.28;;;17.99;68.26
13765;BME280;6953;48.810;9.204;2023-05-01T08:29:42;98528.19;;;18.07;67.75
13765;BME280;6953;48.810;9.204;2023-05-01T08:32:08;98546.09;;;18.55;66.59
13765;BME280;6953;48.810;9.204;2023-05-01T08:34:33;98522.72;;;18.88;64.77
13765;BME280;6953;48.810;9.204;2023-05-01T08:37:00;98535.72;;;19.50;63.45
13765;BME280;6953;48.810;9.204;2023-05-01T08:39:26;98540.03;;;20.17;60.80
13765;BME280;6953;48.810;9.204;2023-05-01T08:41:52;98540.72;;;20.65;58.95
13765;BME280;6953;48.810;9.204;2023-05-01T08:44:19;98532.81;;;21.09;57.54
13765;BME280;6953;48.810;9.204;2023-05-01T08:49:32;98529.19;;;22.22;54.19
13765;BME280;6953;48.810;9.204;2023-05-01T08:52:02;98524.75;;;22.31;53.49
13765;BME280;6953;48.810;9.204;2023-05-01T08:54:29;98510.84;;;22.53;52.55
13765;BME280;6953;48.810;9.204;2023-05-01T08:56:59;98536.84;;;23.02;50.69
13765;BME280;6953;48.810;9.204;2023-05-01T08:59:27;98535.44;;;23.31;49.65
13765;BME280;6953;48.810;9.204;2023-05-01T09:01:55;98533.81;;;23.54;48.85
13765;BME280;6953;48.810;9.204;2023-05-01T09:04:21;98526.34;;;23.73;47.81
13765;BME280;6953;48.810;9.204;2023-05-01T09:06:48;98530.69;;;24.22;46.01
13765;BME280;6953;48.810;9.204;2023-05-01T09:09:14;98525.84;;;24.10;46.02
13765;BME280;6953;48.810;9.204;2023-05-01T09:11:43;98542.25;;;24.30;44.55
13765;BME280;6953;48.810;9.204;2023-05-01T09:14:13;98540.16;;;24.80;42.62
13765;BME280;6953;48.810;9.204;2023-05-01T09:16:39;98545.25;;;25.44;41.41
13765;BME280;6953;48.810;9.204;2023-05-01T09:19:05;98532.66;;;25.97;39.28
13765;BME280;6953;48.810;9.204;2023-05-01T09:21:31;98490.25;;;26.36;38.06
13765;BME280;6953;48.810;9.204;2023-05-01T09:23:57;98510.69;;;27.17;35.66
13765;BME280;6953;48.810;9.204;2023-05-01T09:26:23;98536.31;;;27.63;34.50
13765;BME280;6953;48.810;9.204;2023-05-01T09:28:49;98549.72;;;27.56;34.63
13765;BME280;6953;48.810;9.204;2023-05-01T09:34:02;98531.50;;;26.51;37.10
13765;BME280;6953;48.810;9.204;2023-05-01T09:36:30;98543.81;;;26.09;38.00
13765;BME280;6953;48.810;9.204;2023-05-01T09:38:57;98503.88;;;25.23;39.33
13765;BME280;6953;48.810;9.204;2023-05-01T09:41:25;98540.34;;;25.17;40.19
13765;BME280;6953;48.810;9.204;2023-05-01T09:43:58;98542.13;;;25.33;40.11
13765;BME280;6953;48.810;9.204;2023-05-01T09:46:24;98546.44;;;26.68;37.19
13765;BME280;6953;48.810;9.204;2023-05-01T09:49:00;98522.91;;;28.32;33.09
13765;BME280;6953;48.810;9.204;2023-05-01T09:51:29;98549.56;;;29.96;29.87
13765;BME280;6953;48.810;9.204;2023-05-01T09:54:00;98551.84;;;31.03;27.44
13765;BME280;6953;48.810;9.204;2023-05-01T09:56:31;98552.38;;;31.37;25.85
13765;BME280;6953;48.810;9.204;2023-05-01T09:59:13;98557.34;;;31.40;26.66
13765;BME280;6953;48.810;9.204;2023-05-01T10:01:43;98560.34;;;31.19;27.08
13765;BME280;6953;48.810;9.204;2023-05-01T10:04:12;98541.88;;;30.71;27.93
13765;BME280;6953;48.810;9.204;2023-05-01T10:06:38;98528.69;;;29.90;29.19
13765;BME280;6953;48.810;9.204;2023-05-01T10:09:05;98533.88;;;29.26;30.78
13765;BME280;6953;48.810;9.204;2023-05-01T10:11:50;98526.13;;;28.42;31.03
13765;BME280;6953;48.810;9.204;2023-05-01T10:14:20;98517.63;;;27.61;32.73
13765;BME280;6953;48.810;9.204;2023-05-01T10:16:48;98529.00;;;26.93;34.50
13765;BME280;6953;48.810;9.204;2023-05-01T10:19:17;98515.91;;;26.24;36.15
13765;BME280;6953;48.810;9.204;2023-05-01T10:21:43;98417.66;;;25.10;36.57
13765;BME280;6953;48.810;9.204;2023-05-01T10:24:08;98520.41;;;25.42;38.87
13765;BME280;6953;48.810;9.204;2023-05-01T10:26:36;98531.72;;;25.30;38.79
13765;BME280;6953;48.810;9.204;2023-05-01T10:29:03;98517.50;;;25.21;39.08
13765;BME280;6953;48.810;9.204;2023-05-01T10:31:28;98517.28;;;25.31;38.79
13765;BME280;6953;48.810;9.204;2023-05-01T10:33:57;98529.06;;;25.52;39.24
13765;BME280;6953;48.810;9.204;2023-05-01T10:38:56;98307.16;;;24.07;39.25
13765;BME280;6953;48.810;9.204;2023-05-01T10:44:25;98522.75;;;26.12;36.50
13765;BME280;6953;48.810;9.204;2023-05-01T10:46:52;98490.66;;;26.25;35.24
13765;BME280;6953;48.810;9.204;2023-05-01T10:49:18;98524.09;;;26.67;35.00
13765;BME280;6953;48.810;9.204;2023-05-01T10:54:25;98443.72;;;26.42;35.06
13765;BME280;6953;48.810;9.204;2023-05-01T10:56:52;98526.25;;;27.36;33.26
13765;BME280;6953;48.810;9.204;2023-05-01T10:59:18;98494.44;;;27.46;32.58
13765;BME280;6953;48.810;9.204;2023-05-01T11:01:45;98380.25;;;27.12;32.04
13765;BME280;6953;48.810;9.204;2023-05-01T11:10:01;98518.75;;;27.17;32.39
13765;BME280;6953;48.810;9.204;2023-05-01T11:15:11;98521.09;;;26.77;33.89
13765;BME280;6953;48.810;9.204;2023-05-01T11:20:07;98510.97;;;26.50;34.81
13765;BME280;6953;48.810;9.204;2023-05-01T11:22:33;98511.06;;;25.83;34.98
13765;BME280;6953;48.810;9.204;2023-05-01T11:25:00;98504.91;;;25.74;36.36
13765;BME280;6953;48.810;9.204;2023-05-01T11:27:26;98497.94;;;26.02;36.88
13765;BME280;6953;48.810;9.204;2023-05-01T11:29:52;98503.81;;;26.42;35.31
13765;BME280;6953;48.810;9.204;2023-05-01T11:32:22;98480.22;;;26.88;35.03
13765;BME280;6953;48.810;9.204;2023-05-01T11:34:49;98506.38;;;27.23;33.82
13765;BME280;6953;48.810;9.204;2023-05-01T11:37:16;98497.63;;;27.35;32.99
13765;BME280;6953;48.810;9.204;2023-05-01T11:39:51;98511.63;;;27.45;32.03
13765;BME280;6953;48.810;9.204;2023-05-01T11:42:19;98497.03;;;27.19;32.52
13765;BME280;6953;48.810;9.204;2023-05-01T11:45:05;98507.06;;;26.81;33.69
13765;BME280;6953;48.810;9.204;2023-05-01T11:47:31;98509.00;;;26.44;33.32
13765;BME280;6953;48.810;9.204;2023-05-01T11:49:57;98509.53;;;26.39;33.79
13765;BME280;6953;48.810;9.204;2023-05-01T11:52:23;98501.16;;;26.35;35.23
13765;BME280;6953;48.810;9.204;2023-05-01T11:54:48;98504.78;;;26.27;34.69
13765;BME280;6953;48.810;9.204;2023-05-01T11:57:14;98502.16;;;26.05;34.63
13765;BME280;6953;48.810;9.204;2023-05-01T11:59:39;98503.34;;;26.02;35.16
13765;BME280;6953;48.810;9.204;2023-05-01T12:02:17;98483.78;;;25.63;36.04
13765;BME280;6953;48.810;9.204;2023-05-01T12:04:44;98492.19;;;25.46;36.44
13765;BME280;6953;48.810;9.204;2023-05-01T12:07:19;98495.81;;;25.53;36.36
13765;BME280;6953;48.810;9.204;2023-05-01T12:09:45;98492.44;;;25.51;36.75
13765;BME280;6953;48.810;9.204;2023-05-01T12:12:11;98494.31;;;25.50;36.97
13765;BME280;6953;48.810;9.204;2023-05-01T12:14:38;98483.91;;;25.47;36.91
13765;BME280;6953;48.810;9.204;2023-05-01T12:17:05;98445.66;;;25.68;36.32
13765;BME280;6953;48.810;9.204;2023-05-01T12:19:31;98482.25;;;27.00;34.75
13765;BME280;6953;48.810;9.204;2023-05-01T12:22:07;98500.38;;;29.20;30.14
13765;BME280;6953;48.810;9.204;2023-05-01T12:24:33;98464.38;;;30.44;28.22
13765;BME280;6953;48.810;9.204;2023-05-01T12:26:59;98468.53;;;31.29;26.62
13765;BME280;6953;48.810;9.204;2023-05-01T12:29:25;98493.81;;;31.17;26.54
13765;BME280;6953;48.810;9.204;2023-05-01T12:31:51;98490.22;;;30.27;27.54
13765;BME280;6953;48.810;9.204;2023-05-01T12:34:17;98499.81;;;30.04;28.18
13765;BME280;6953;48.810;9.204;2023-05-01T12:36:51;98495.84;;;30.00;27.85
13765;BME280;6953;48.810;9.204;2023-05-01T12:39:17;98504.16;;;29.85;27.91
13765;BME280;6953;48.810;9.204;2023-05-01T12:41:45;98501.22;;;29.74;28.38
13765;BME280;6953;48.810;9.204;2023-05-01T12:44:27;98500.38;;;29.86;28.70
13765;BME280;6953;48.810;9.204;2023-05-01T12:47:08;98499.41;;;29.34;28.79
13765;BME280;6953;48.810;9.204;2023-05-01T12:49:35;98492.81;;;29.50;28.72
13765;BME280;6953;48.810;9.204;2023-05-01T12:52:03;98505.44;;;30.35;27.31
13765;BME280;6953;48.810;9.204;2023-05-01T12:54:30;98509.97;;;30.79;26.60
13765;BME280;6953;48.810;9.204;2023-05-01T12:59:37;98509.03;;;31.24;26.08
13765;BME280;6953;48.810;9.204;2023-05-01T13:02:05;98506.59;;;32.22;24.55
13765;BME280;6953;48.810;9.204;2023-05-01T13:04:31;98484.97;;;32.33;24.88
13765;BME280;6953;48.810;9.204;2023-05-01T13:06:57;98517.97;;;32.06;24.42
13765;BME280;6953;48.810;9.204;2023-05-01T13:09:24;98501.50;;;32.74;24.02
13765;BME280;6953;48.810;9.204;2023-05-01T13:12:04;98498.13;;;32.54;23.93
13765;BME280;6953;48.810;9.204;2023-05-01T13:14:38;98450.28;;;31.05;26.03
13765;BME280;6953;48.810;9.204;2023-05-01T13:17:24;98284.44;;;28.72;28.23
13765;BME280;6953;48.810;9.204;2023-05-01T13:19:58;98471.88;;;28.77;29.99
13765;BME280;6953;48.810;9.204;2023-05-01T13:22:37;98470.69;;;27.56;31.19
13765;BME280;6953;48.810;9.204;2023-05-01T13:25:16;98443.72;;;26.42;34.16
13765;BME280;6953;48.810;9.204;2023-05-01T13:27:52;98455.19;;;25.70;36.26
13765;BME280;6953;48.810;9.204;2023-05-01T13:30:20;98459.31;;;25.06;38.71
13765;BME280;6953;48.810;9.204;2023-05-01T13:32:49;98467.78;;;24.40;39.70
13765;BME280;6953;48.810;9.204;2023-05-01T13:35:22;98442.91;;;23.44;41.96
13765;BME280;6953;48.810;9.204;2023-05-01T13:37:49;98472.47;;;23.11;43.84
13765;BME280;6953;48.810;9.204;2023-05-01T13:40:17;98454.06;;;22.59;45.48
13765;BME280;6953;48.810;9.204;2023-05-01T13:42:44;98480.41;;;22.20;46.72
13765;BME280;6953;48.810;9.204;2023-05-01T13:45:12;98478.88;;;21.93;47.61
13765;BME280;6953;48.810;9.204;2023-05-01T13:47:45;98464.41;;;21.78;48.64
13765;BME280;6953;48.810;9.204;2023-05-01T13:50:16;98479.75;;;21.76;49.79
13765;BME280;6953;48.810;9.204;2023-05-01T13:52:43;98484.03;;;21.69;50.45
13765;BME280;6953;48.810;9.204;2023-05-01T13:55:11;98478.38;;;21.89;50.33
13765;BME280;6953;48.810;9.204;2023-05-01T13:57:38;98481.75;;;21.99;50.71
13765;BME280;6953;48.810;9.204;2023-05-01T14:00:12;98479.59;;;22.02;51.65
13765;BME280;6953;48.810;9.204;2023-05-01T14:02:46;98485.81;;;21.86;53.71
13765;BME280;6953;48.810;9.204;2023-05-01T14:05:22;98484.81;;;21.61;55.45